Aviation Digital Data Service (ADDS)

Output produced by METARs form (2154 UTC 19 February 2018)
found at http://www.aviationweather.gov/adds/metars/
 
HDAM 191700Z 11006KT CAVOK 27/21 Q1012
TAF HDAM 191000Z 1912/2012 08010KT 9999 FEW023 
     BECMG 1915/2006 VRB03KT SCT020